EGEC/CAL METAR and TAF weather

Enter ICAO airport designator
Station Type Date Time Source
EGEC METAR 2021/09/27 07:50 UTC NOAA

EGEC 270750Z 23011KT 9999 SCT030 11/09 Q0998


Station Type Date Time Source
EGEC Decoded METAR 2021/09/27 07:50 UTC NOAA

Campbeltown, United Kingdom (EGEC) 55-26-14N 005-41-11W
Sep 27, 2021 - 03:50 AM EDT / 2021.09.27 0750 UTC
Wind: from the SW (230 degrees) at 13 MPH (11 KT):0
Visibility: greater than 7 mile(s):0
Sky conditions: partly cloudy
Temperature: 51 F (11 C)
Dew Point: 48 F (9 C)
Relative Humidity: 87%
Pressure (altimeter): 29.47 in. Hg (0998 hPa)
ob: EGEC 270750Z 23011KT 9999 SCT030 11/09 Q0998
cycle: 8

Station Type Date Time Source
EGEC TAF UTC NOAA

Error!

Example: see airport list